Time;durP1;ratioP1;P1;durP2;ratioP2;P2;SDS_P1;SDS_P2;PMS_P1;PMS_P2;Temp;Humidity;BMP_temperature;BMP_pressure;BME280_temperature;BME280_humidity;BME280_pressure;Samples;Min_cycle;Max_cycle;Signal;HPM_P1;HPM_P2
2023/03/12 00:01:25;;;;;;;7.13;6.43;;;;;;;15.28;34.84;101143.56;5092640;28;20107;-74
2023/03/12 00:03:52;;;;;;;8.10;6.82;;;;;;;15.27;34.84;101132.00;5089077;28;20055;-74
2023/03/12 00:06:19;;;;;;;7.73;6.57;;;;;;;15.24;34.69;101135.78;5090768;28;20036;-73
2023/03/12 00:08:44;;;;;;;7.28;6.57;;;;;;;15.28;34.87;101133.69;5092464;28;20549;-74
2023/03/12 00:11:12;;;;;;;7.30;6.53;;;;;;;15.25;34.79;101131.31;5090398;28;20035;-74
2023/03/12 00:13:38;;;;;;;7.85;6.72;;;;;;;15.13;34.74;101101.13;5089990;28;20020;-74
2023/03/12 00:16:09;;;;;;;6.97;6.28;;;;;;;15.30;34.96;101134.41;5089562;28;20020;-74
2023/03/12 00:18:34;;;;;;;7.55;6.45;;;;;;;15.16;35.12;101111.53;5094124;28;20020;-74
2023/03/12 00:21:00;;;;;;;7.85;6.15;;;;;;;15.29;34.82;101129.16;5090297;28;20039;-74
2023/03/12 00:23:25;;;;;;;6.60;5.90;;;;;;;14.89;34.61;101047.09;5083855;28;20479;-75
2023/03/12 00:25:51;;;;;;;8.73;6.50;;;;;;;15.35;34.52;101113.41;5093053;28;20111;-74
2023/03/12 00:28:16;;;;;;;8.63;7.05;;;;;;;15.39;34.69;101124.69;5089258;28;20039;-74
2023/03/12 00:30:42;;;;;;;7.80;6.70;;;;;;;15.38;34.66;101117.66;5091216;28;20032;-73
2023/03/12 00:33:08;;;;;;;6.63;6.03;;;;;;;15.40;34.58;101112.97;5093209;28;20115;-75
2023/03/12 00:35:33;;;;;;;7.65;5.97;;;;;;;14.97;34.62;101045.44;5088945;28;20074;-73
2023/03/12 00:37:59;;;;;;;7.40;5.80;;;;;;;14.88;34.48;101032.03;5088592;28;20031;-74
2023/03/12 00:40:24;;;;;;;7.75;6.28;;;;;;;15.46;34.60;101118.63;5088379;28;20070;-74
2023/03/12 00:42:49;;;;;;;6.95;6.25;;;;;;;15.49;34.42;101110.28;5093153;28;20088;-74
2023/03/12 00:45:15;;;;;;;6.65;5.68;;;;;;;15.52;34.36;101113.69;5091427;28;20036;-74
2023/03/12 00:47:40;;;;;;;7.43;6.40;;;;;;;15.54;34.37;101100.97;5089505;28;20039;-74
2023/03/12 00:50:06;;;;;;;7.63;5.93;;;;;;;15.55;34.41;101095.50;5092080;28;20061;-74
2023/03/12 00:52:31;;;;;;;6.35;5.60;;;;;;;15.56;34.35;101090.97;5091226;28;20497;-74
2023/03/12 00:54:57;;;;;;;7.45;6.35;;;;;;;14.98;34.44;100996.25;5086040;28;20025;-74
2023/03/12 00:57:23;;;;;;;5.80;5.15;;;;;;;15.59;34.33;101093.34;5099400;28;20024;-75
2023/03/12 00:59:48;;;;;;;6.78;5.95;;;;;;;15.14;34.37;101013.59;5099115;28;20034;-75
2023/03/12 01:02:13;;;;;;;6.95;5.68;;;;;;;15.14;34.53;101008.22;5100190;28;20024;-75
2023/03/12 01:04:39;;;;;;;7.05;6.20;;;;;;;15.63;34.15;101084.91;5066293;28;20123;-73
2023/03/12 01:07:04;;;;;;;6.35;5.72;;;;;;;15.23;34.24;101013.56;5101374;28;20051;-74
2023/03/12 01:09:29;;;;;;;6.38;5.38;;;;;;;15.18;34.19;101004.28;5100482;28;20104;-74
2023/03/12 01:11:54;;;;;;;5.93;5.15;;;;;;;15.68;34.10;101074.63;5091564;28;20029;-75
2023/03/12 01:14:20;;;;;;;6.15;5.30;;;;;;;15.71;34.10;101076.16;5091267;28;20028;-74
2023/03/12 01:16:45;;;;;;;7.30;5.80;;;;;;;15.72;34.08;101084.09;5100308;28;20051;-72
2023/03/12 01:19:11;;;;;;;5.97;5.38;;;;;;;15.65;34.04;101068.72;5101069;28;20039;-73
2023/03/12 01:21:36;;;;;;;7.07;5.43;;;;;;;15.22;34.11;101003.84;5090066;28;20047;-74
2023/03/12 01:24:02;;;;;;;6.65;5.80;;;;;;;15.46;34.01;101021.28;5099479;28;20054;-74
2023/03/12 01:26:27;;;;;;;6.45;5.53;;;;;;;15.00;34.12;100950.59;5100403;28;20025;-75
2023/03/12 01:28:52;;;;;;;6.68;5.22;;;;;;;15.35;33.97;100990.16;5099129;28;20040;-74
2023/03/12 01:31:18;;;;;;;6.70;5.53;;;;;;;15.34;33.94;100976.94;5087035;28;20028;-73
2023/03/12 01:33:48;;;;;;;6.32;5.32;;;;;;;14.97;33.95;100910.72;5088588;28;20067;-73
2023/03/12 01:36:17;;;;;;;5.60;5.03;;;;;;;15.30;33.56;100973.69;5097902;28;20087;-74
2023/03/12 01:38:43;;;;;;;5.38;4.88;;;;;;;15.76;33.87;101044.44;5091145;28;20035;-72
2023/03/12 01:41:08;;;;;;;6.70;5.55;;;;;;;15.92;33.72;101066.09;5086055;28;20032;-73
2023/03/12 01:43:36;;;;;;;5.45;4.90;;;;;;;15.94;33.85;101057.94;5095506;28;20100;-74
2023/03/12 01:46:19;;;;;;;6.28;5.18;;;;;;;15.97;33.73;101057.63;5094937;28;20043;-74
2023/03/12 01:48:49;;;;;;;5.40;4.50;;;;;;;16.03;33.54;101053.53;5088083;28;20122;-74
2023/03/12 01:51:16;;;;;;;5.95;5.00;;;;;;;16.06;33.47;101050.56;5093054;28;20401;-74
2023/03/12 01:53:44;;;;;;;5.30;4.80;;;;;;;16.09;33.42;101052.94;5088962;28;20032;-73
2023/03/12 01:56:10;;;;;;;5.55;5.00;;;;;;;16.12;33.32;101049.97;5091397;28;20024;-74
2023/03/12 01:58:37;;;;;;;5.35;4.32;;;;;;;15.82;33.39;100975.97;5084842;28;20381;-74
2023/03/12 02:01:02;;;;;;;6.00;4.75;;;;;;;15.87;33.19;100997.81;5089593;28;20496;-74
2023/03/12 02:03:28;;;;;;;5.70;5.00;;;;;;;16.16;33.25;101027.22;5089528;28;20024;-75
2023/03/12 02:05:59;;;;;;;5.00;4.50;;;;;;;16.04;33.29;100998.91;5092654;28;20049;-74
2023/03/12 02:08:24;;;;;;;5.30;4.80;;;;;;;16.14;33.17;101013.09;5087288;28;20036;-75
2023/03/12 02:10:50;;;;;;;5.28;4.53;;;;;;;16.28;33.13;101030.56;5087699;28;20036;-74
2023/03/12 02:13:15;;;;;;;5.65;4.97;;;;;;;16.32;33.10;101029.28;5093326;28;20482;-74
2023/03/12 02:15:40;;;;;;;5.63;4.60;;;;;;;16.32;33.12;101027.44;5090016;28;20074;-74
2023/03/12 02:18:08;;;;;;;4.90;4.28;;;;;;;15.67;33.21;100911.25;5090979;28;20038;-74
2023/03/12 02:20:44;;;;;;;4.57;4.10;;;;;;;16.38;32.93;101021.47;5090281;28;20040;-75
2023/03/12 02:23:33;;;;;;;5.60;4.45;;;;;;;16.36;32.96;101011.88;5091958;28;20038;-74
2023/03/12 02:25:59;;;;;;;5.03;4.22;;;;;;;16.43;32.93;101013.78;5094565;28;20024;-74
2023/03/12 02:28:27;;;;;;;6.22;5.05;;;;;;;16.49;32.84;101004.31;5093888;28;20042;-74
2023/03/12 02:30:57;;;;;;;5.07;4.57;;;;;;;16.49;32.78;101004.31;5088116;28;20028;-74
2023/03/12 02:33:22;;;;;;;5.25;4.28;;;;;;;16.42;32.79;101000.53;5091166;28;20119;-73
2023/03/12 02:35:47;;;;;;;5.47;4.45;;;;;;;16.37;32.82;100984.88;5097676;28;20401;-73
2023/03/12 02:38:36;;;;;;;4.72;4.15;;;;;;;16.52;32.78;101004.00;5091967;28;20100;-74
2023/03/12 02:41:11;;;;;;;5.28;4.40;;;;;;;16.09;32.96;100924.19;5093855;28;20020;-74
2023/03/12 02:43:37;;;;;;;4.22;3.83;;;;;;;16.52;32.78;100997.78;5085218;28;20028;-73
2023/03/12 02:46:03;;;;;;;6.07;4.55;;;;;;;16.55;32.70;101003.72;5082476;28;20021;-74
2023/03/12 02:48:28;;;;;;;4.63;4.22;;;;;;;16.52;32.71;100982.53;5090162;28;20032;-74
2023/03/12 02:50:54;;;;;;;5.10;3.92;;;;;;;16.32;32.67;100949.63;5091143;28;20024;-74
2023/03/12 02:53:19;;;;;;;4.80;4.30;;;;;;;16.46;32.70;100964.34;5092873;28;20396;-74
2023/03/12 02:55:44;;;;;;;4.60;3.95;;;;;;;16.58;32.62;100973.03;5099148;28;20024;-75
2023/03/12 02:58:10;;;;;;;6.07;4.22;;;;;;;16.45;32.67;100938.53;5093211;28;20094;-74
2023/03/12 03:00:36;;;;;;;4.60;3.78;;;;;;;16.62;32.60;100961.84;5090501;28;20382;-74
2023/03/12 03:03:02;;;;;;;4.18;3.78;;;;;;;16.66;32.46;100962.41;5094361;28;20027;-74
2023/03/12 03:05:27;;;;;;;4.95;3.88;;;;;;;16.53;32.39;100924.34;5099765;28;20072;-74
2023/03/12 03:07:52;;;;;;;4.82;3.85;;;;;;;16.66;32.57;100951.66;5090528;28;20033;-75
2023/03/12 03:10:18;;;;;;;4.63;4.03;;;;;;;16.32;32.37;100885.22;5089027;28;20028;-75
2023/03/12 03:12:43;;;;;;;4.68;3.70;;;;;;;16.65;32.57;100937.41;5100211;28;20080;-74
2023/03/12 03:15:09;;;;;;;4.90;3.97;;;;;;;16.69;32.31;100938.78;5084421;28;20084;-74
2023/03/12 03:17:35;;;;;;;5.90;4.13;;;;;;;16.67;32.42;100924.66;5091401;28;20078;-74
2023/03/12 03:20:00;;;;;;;3.95;3.45;;;;;;;16.35;32.32;100865.28;5094211;28;20028;-74
2023/03/12 03:22:26;;;;;;;4.50;3.70;;;;;;;16.28;32.33;100867.75;5102285;28;20081;-74
2023/03/12 03:24:52;;;;;;;4.00;3.60;;;;;;;16.20;32.38;100839.00;5085224;28;20093;-74
2023/03/12 03:27:18;;;;;;;4.50;3.60;;;;;;;16.76;32.47;100928.28;5094113;28;20618;-74
2023/03/12 03:29:45;;;;;;;4.20;3.70;;;;;;;16.26;32.21;100837.53;5095632;28;20032;-73
2023/03/12 03:32:10;;;;;;;4.20;3.58;;;;;;;16.65;32.29;100898.94;5101430;28;20032;-73
2023/03/12 03:34:35;;;;;;;4.45;3.38;;;;;;;16.80;32.41;100916.25;5091029;28;20076;-73
2023/03/12 03:37:00;;;;;;;4.03;3.63;;;;;;;16.85;32.11;100924.66;5103916;28;20020;-74
2023/03/12 03:39:27;;;;;;;4.93;3.88;;;;;;;16.88;32.17;100929.75;5076911;28;20051;-74
2023/03/12 03:41:53;;;;;;;5.28;3.85;;;;;;;16.89;32.23;100930.56;5099996;28;20054;-74
2023/03/12 03:44:18;;;;;;;4.05;3.65;;;;;;;16.81;32.19;100930.50;5098429;28;20028;-74
2023/03/12 03:46:43;;;;;;;7.50;3.92;;;;;;;16.50;32.21;100861.91;5093760;28;20036;-73
2023/03/12 03:49:09;;;;;;;3.80;3.17;;;;;;;16.97;31.95;100934.19;5093801;28;20035;-74
2023/03/12 03:51:34;;;;;;;4.07;3.53;;;;;;;17.01;31.92;100923.97;5093477;28;20032;-74
2023/03/12 03:54:00;;;;;;;4.05;3.15;;;;;;;16.25;31.90;100783.03;5088880;28;20078;-74
2023/03/12 03:56:25;;;;;;;4.47;3.33;;;;;;;16.22;31.85;100769.91;5090443;28;20028;-74
2023/03/12 03:58:50;;;;;;;3.70;3.00;;;;;;;16.93;32.19;100888.97;5095673;28;20050;-74
2023/03/12 04:01:16;;;;;;;4.82;3.10;;;;;;;16.56;31.81;100827.41;5091731;28;20039;-75
2023/03/12 04:03:41;;;;;;;4.78;3.22;;;;;;;17.14;32.04;100910.13;5088612;28;20529;-74
2023/03/12 04:06:06;;;;;;;5.00;3.67;;;;;;;17.15;31.80;100909.97;5085659;28;20070;-74
2023/03/12 04:08:34;;;;;;;3.88;3.10;;;;;;;17.17;31.77;100899.09;5093007;28;20126;-74
2023/03/12 04:11:07;;;;;;;4.18;3.05;;;;;;;17.14;31.69;100880.59;5088307;28;20088;-74
2023/03/12 04:13:32;;;;;;;4.53;3.13;;;;;;;16.76;31.68;100803.94;5099385;28;20646;-74
2023/03/12 04:15:58;;;;;;;3.38;3.08;;;;;;;17.17;31.76;100872.22;5091181;28;20088;-74
2023/03/12 04:18:23;;;;;;;3.40;2.70;;;;;;;17.22;31.81;100886.84;5074546;28;20123;-73
2023/03/12 04:20:49;;;;;;;3.20;2.88;;;;;;;17.24;31.54;100876.78;5086119;28;20028;-74
2023/03/12 04:23:14;;;;;;;2.97;2.63;;;;;;;17.14;31.89;100848.34;5075695;28;20028;-74
2023/03/12 04:25:39;;;;;;;4.55;3.00;;;;;;;16.50;31.66;100730.41;5101668;28;20042;-74
2023/03/12 04:28:05;;;;;;;3.72;2.90;;;;;;;17.18;31.65;100839.81;5091322;28;20043;-74
2023/03/12 04:30:30;;;;;;;2.97;2.67;;;;;;;17.34;31.61;100852.50;5088074;28;20028;-74
2023/03/12 04:32:56;;;;;;;4.32;3.05;;;;;;;16.86;31.61;100772.44;5089718;28;20031;-74
2023/03/12 04:35:21;;;;;;;2.80;2.50;;;;;;;16.97;31.40;100780.25;5091537;28;20082;-74
2023/03/12 04:37:46;;;;;;;5.05;2.70;;;;;;;17.38;31.43;100831.53;5090983;28;20051;-73
2023/03/12 04:40:12;;;;;;;3.50;2.42;;;;;;;16.89;31.58;100743.44;5092024;28;20048;-74
2023/03/12 04:42:38;;;;;;;2.90;2.45;;;;;;;17.40;31.58;100841.09;5089087;28;20032;-73
2023/03/12 04:45:05;;;;;;;3.83;2.88;;;;;;;17.38;31.56;100840.44;5090711;28;20031;-73
2023/03/12 04:47:31;;;;;;;2.97;2.65;;;;;;;17.36;31.51;100837.03;5087606;28;20024;-74
2023/03/12 04:49:57;;;;;;;3.00;2.67;;;;;;;17.35;31.59;100840.75;5084180;28;20416;-74
2023/03/12 04:52:22;;;;;;;3.22;2.70;;;;;;;17.41;31.36;100845.47;5088483;28;20047;-74
2023/03/12 04:54:47;;;;;;;3.42;2.50;;;;;;;17.38;31.85;100840.44;5088896;28;20032;-74
2023/03/12 04:57:13;;;;;;;3.72;2.40;;;;;;;17.35;31.44;100832.69;5091932;28;20040;-75
2023/03/12 04:59:38;;;;;;;3.35;2.45;;;;;;;17.41;31.38;100836.56;5094117;28;20102;-74
2023/03/12 05:02:03;;;;;;;3.35;2.70;;;;;;;16.88;31.50;100744.44;5089287;28;20032;-75
2023/03/12 05:04:28;;;;;;;3.45;2.97;;;;;;;17.30;31.46;100821.56;5086750;28;20533;-74
2023/03/12 05:06:54;;;;;;;4.15;2.75;;;;;;;17.43;31.17;100829.19;5092547;28;20040;-74
2023/03/12 05:09:19;;;;;;;2.72;2.45;;;;;;;17.43;31.56;100818.44;5093969;28;20024;-73
2023/03/12 05:11:44;;;;;;;2.85;2.55;;;;;;;17.03;31.52;100749.22;5100448;28;20028;-73
2023/03/12 05:14:10;;;;;;;3.28;2.80;;;;;;;16.93;31.33;100722.47;5088213;28;20029;-74
2023/03/12 05:16:36;;;;;;;3.25;2.35;;;;;;;16.92;31.29;100740.44;5097702;28;20120;-73
2023/03/12 05:19:03;;;;;;;2.60;2.40;;;;;;;17.43;31.25;100808.53;5093630;28;20382;-74
2023/03/12 05:21:28;;;;;;;2.53;2.33;;;;;;;17.43;31.29;100808.53;5089379;28;20052;-74
2023/03/12 05:23:53;;;;;;;3.70;2.75;;;;;;;17.42;31.40;100804.16;5092951;28;20039;-75
2023/03/12 05:26:22;;;;;;;2.72;2.35;;;;;;;17.31;31.36;100780.25;5098214;28;20028;-74
2023/03/12 05:28:47;;;;;;;3.47;2.55;;;;;;;17.41;31.24;100796.25;5100930;28;20047;-74
2023/03/12 05:31:14;;;;;;;3.00;2.67;;;;;;;17.46;31.40;100793.94;5097305;28;20342;-75
2023/03/12 05:33:40;;;;;;;3.90;2.40;;;;;;;17.44;31.29;100788.72;5076816;28;20088;-73
2023/03/12 05:36:08;;;;;;;2.70;2.35;;;;;;;17.42;31.23;100776.44;5095413;28;20031;-73
2023/03/12 05:38:33;;;;;;;2.80;2.30;;;;;;;17.47;31.39;100782.19;5083575;28;20020;-73
2023/03/12 05:40:59;;;;;;;2.75;2.30;;;;;;;17.47;31.52;100791.06;5086628;28;20024;-73
2023/03/12 05:43:25;;;;;;;2.47;2.20;;;;;;;17.45;31.36;100794.91;5094528;28;20028;-73
2023/03/12 05:45:51;;;;;;;3.45;2.30;;;;;;;17.48;31.33;100808.88;5098287;28;20124;-73
2023/03/12 05:48:17;;;;;;;2.88;2.20;;;;;;;17.47;31.36;100804.50;5092487;28;20025;-74
2023/03/12 05:50:42;;;;;;;2.72;2.35;;;;;;;17.30;31.37;100769.69;5091534;28;20565;-73
2023/03/12 05:53:08;;;;;;;2.72;2.33;;;;;;;17.45;31.37;100790.38;5097713;28;20035;-74
2023/03/12 05:55:37;;;;;;;3.92;2.60;;;;;;;17.44;31.24;100788.72;5095353;28;20021;-74
2023/03/12 05:58:04;;;;;;;2.75;2.30;;;;;;;17.47;31.38;100792.94;5092322;28;20052;-74
2023/03/12 06:00:30;;;;;;;2.33;2.13;;;;;;;17.49;31.49;100774.78;5091763;28;20031;-74
2023/03/12 06:02:55;;;;;;;3.05;2.50;;;;;;;17.50;31.42;100779.16;5095619;28;20025;-74
2023/03/12 06:05:20;;;;;;;3.35;2.50;;;;;;;17.49;31.13;100772.94;5102695;28;20048;-74
2023/03/12 06:07:45;;;;;;;3.10;2.30;;;;;;;17.49;31.29;100764.88;5105941;28;20384;-74
2023/03/12 06:10:11;;;;;;;2.95;2.30;;;;;;;17.50;31.45;100768.41;5089053;28;20024;-74
2023/03/12 06:12:36;;;;;;;3.15;2.20;;;;;;;17.13;31.36;100702.44;5096479;28;20040;-74
2023/03/12 06:15:02;;;;;;;3.13;2.08;;;;;;;17.52;31.31;100769.09;5096634;28;20025;-74
2023/03/12 06:17:29;;;;;;;3.03;2.40;;;;;;;17.53;31.33;100759.16;5091555;28;20028;-75
2023/03/12 06:19:54;;;;;;;3.78;2.38;;;;;;;17.52;31.15;100755.66;5091768;28;20027;-74
2023/03/12 06:22:19;;;;;;;2.80;2.28;;;;;;;17.53;31.35;100767.22;5094682;28;20020;-75
2023/03/12 06:24:47;;;;;;;3.00;2.38;;;;;;;17.05;31.24;100690.81;5087939;28;20028;-74
2023/03/12 06:27:16;;;;;;;3.80;2.77;;;;;;;17.31;31.32;100722.97;5096157;28;20032;-74
2023/03/12 06:29:42;;;;;;;4.60;2.10;;;;;;;17.50;31.29;100752.28;5095700;28;20020;-73
2023/03/12 06:32:07;;;;;;;2.50;2.25;;;;;;;16.89;31.12;100641.41;5094778;28;20040;-74
2023/03/12 06:34:33;;;;;;;3.22;2.42;;;;;;;17.53;31.31;100746.56;5092937;28;20044;-74
2023/03/12 06:36:59;;;;;;;3.22;2.20;;;;;;;17.54;31.46;100733.97;5085767;28;20032;-74
2023/03/12 06:39:24;;;;;;;2.97;2.50;;;;;;;17.55;31.26;100731.13;5075275;28;20051;-75
2023/03/12 06:41:50;;;;;;;2.90;2.20;;;;;;;17.14;31.00;100658.44;5092933;28;20023;-73
2023/03/12 06:44:15;;;;;;;3.50;2.58;;;;;;;17.59;31.26;100726.28;5091221;28;20392;-73
2023/03/12 06:46:42;;;;;;;2.42;2.03;;;;;;;17.46;31.36;100714.16;5092664;28;20082;-72
2023/03/12 06:49:08;;;;;;;2.88;2.20;;;;;;;17.58;30.92;100722.72;5090786;28;20040;-74
2023/03/12 06:51:33;;;;;;;2.40;2.08;;;;;;;17.60;31.06;100727.94;5088951;28;20039;-73
2023/03/12 06:54:01;;;;;;;2.75;2.17;;;;;;;17.59;31.34;100723.59;5102997;28;20050;-72
2023/03/12 06:56:26;;;;;;;2.38;2.10;;;;;;;17.60;31.28;100711.81;5096303;28;20077;-75
2023/03/12 06:58:52;;;;;;;2.20;1.98;;;;;;;17.60;31.15;100712.66;5093649;28;20028;-74
2023/03/12 07:01:17;;;;;;;2.70;2.00;;;;;;;17.57;31.44;100704.06;5103842;28;20045;-73
2023/03/12 07:03:42;;;;;;;3.95;3.08;;;;;;;17.60;31.36;100714.50;5096080;28;20027;-73
2023/03/12 07:06:19;;;;;;;3.17;2.05;;;;;;;17.17;31.27;100644.69;5091090;28;20076;-73
2023/03/12 07:08:45;;;;;;;2.75;2.05;;;;;;;17.12;31.45;100636.28;5100876;28;20012;-73
2023/03/12 07:11:11;;;;;;;2.40;1.92;;;;;;;17.13;31.16;100651.41;5095627;28;20564;-73
2023/03/12 07:13:36;;;;;;;2.45;2.00;;;;;;;17.64;31.38;100730.13;5099900;28;20023;-73
2023/03/12 07:16:02;;;;;;;2.90;2.10;;;;;;;17.67;31.24;100724.44;5089716;28;20096;-74
2023/03/12 07:18:29;;;;;;;2.22;1.80;;;;;;;17.68;31.40;100725.28;5074117;28;20135;-74
2023/03/12 07:20:54;;;;;;;2.28;1.88;;;;;;;17.67;31.29;100710.13;5099619;28;20024;-74
2023/03/12 07:23:20;;;;;;;2.15;1.83;;;;;;;17.69;31.31;100708.13;5095001;28;20031;-74
2023/03/12 07:25:46;;;;;;;2.40;1.90;;;;;;;17.71;31.49;100706.97;5102257;28;20034;-73
2023/03/12 07:28:12;;;;;;;2.40;1.90;;;;;;;17.66;31.26;100677.03;5092796;28;20043;-74
2023/03/12 07:30:37;;;;;;;2.97;1.73;;;;;;;17.76;31.24;100682.31;5099422;28;20020;-73
2023/03/12 07:33:04;;;;;;;2.65;2.00;;;;;;;17.76;31.43;100682.31;5094547;28;20063;-73
2023/03/12 07:35:30;;;;;;;2.15;1.80;;;;;;;17.74;31.48;100668.16;5089605;28;20086;-73
2023/03/12 07:37:55;;;;;;;2.30;1.85;;;;;;;17.78;31.42;100674.91;5100266;28;20024;-73
2023/03/12 07:40:21;;;;;;;2.03;1.60;;;;;;;17.79;31.18;100668.50;5102037;28;20023;-74
2023/03/12 07:42:47;;;;;;;3.40;2.20;;;;;;;17.79;31.28;100668.50;5101513;28;20500;-73
2023/03/12 07:45:12;;;;;;;2.97;1.90;;;;;;;17.81;31.32;100662.97;5102754;28;20054;-73
2023/03/12 07:47:37;;;;;;;2.70;1.63;;;;;;;17.71;31.13;100631.69;5098260;28;20028;-72
2023/03/12 07:50:03;;;;;;;2.88;2.20;;;;;;;17.34;31.15;100578.41;5095413;28;20070;-73
2023/03/12 07:52:28;;;;;;;3.78;2.17;;;;;;;17.39;31.11;100591.34;5101015;28;20020;-74
2023/03/12 07:54:55;;;;;;;2.78;1.90;;;;;;;17.90;31.07;100653.91;5088461;28;20638;-73
2023/03/12 07:57:20;;;;;;;2.00;1.80;;;;;;;17.42;31.09;100569.50;5099461;28;20028;-73
2023/03/12 07:59:46;;;;;;;2.80;2.00;;;;;;;17.93;31.21;100654.41;5093653;28;20024;-73
2023/03/12 08:02:12;;;;;;;2.53;1.75;;;;;;;17.95;31.02;100656.91;5081775;28;20050;-74
2023/03/12 08:04:37;;;;;;;2.53;2.10;;;;;;;17.94;30.91;100661.47;5089822;28;20020;-74
2023/03/12 08:07:03;;;;;;;2.78;1.85;;;;;;;17.95;30.99;100673.06;5094979;28;20052;-75
2023/03/12 08:09:28;;;;;;;2.22;1.80;;;;;;;17.98;31.06;100665.50;5090764;28;20035;-74
2023/03/12 08:11:53;;;;;;;2.92;2.10;;;;;;;17.87;30.91;100651.53;5088103;28;20025;-74
2023/03/12 08:14:19;;;;;;;2.58;1.80;;;;;;;18.03;31.11;100683.81;5087376;28;20032;-74
2023/03/12 08:16:44;;;;;;;1.98;1.63;;;;;;;17.64;30.91;100617.22;5095391;28;20028;-73
2023/03/12 08:19:09;;;;;;;2.88;2.13;;;;;;;18.10;30.57;100682.16;5087996;28;20030;-74
2023/03/12 08:21:34;;;;;;;2.47;1.80;;;;;;;18.12;30.77;100687.34;5089368;28;20035;-74
2023/03/12 08:24:00;;;;;;;2.67;1.92;;;;;;;18.10;31.06;100686.69;5086462;28;20024;-73
2023/03/12 08:26:25;;;;;;;2.97;2.08;;;;;;;18.08;30.98;100694.91;5096035;28;20061;-74
2023/03/12 08:28:50;;;;;;;2.72;1.92;;;;;;;18.07;30.75;100682.47;5087579;28;20117;-74
2023/03/12 08:31:16;;;;;;;2.75;1.75;;;;;;;18.11;30.95;100688.38;5100673;28;20031;-74
2023/03/12 08:33:42;;;;;;;2.05;1.73;;;;;;;18.11;31.08;100689.19;5074668;28;20032;-73
2023/03/12 08:36:08;;;;;;;3.65;1.85;;;;;;;18.13;30.84;100683.63;5091979;28;20023;-74
2023/03/12 08:38:33;;;;;;;2.10;1.65;;;;;;;18.08;31.10;100681.47;5086679;28;20035;-73
2023/03/12 08:40:59;;;;;;;3.88;1.90;;;;;;;18.15;31.01;100684.31;5091895;28;20087;-74
2023/03/12 08:43:26;;;;;;;2.83;2.10;;;;;;;18.10;30.80;100674.06;5068002;28;20082;-74
2023/03/12 08:45:58;;;;;;;2.60;1.90;;;;;;;18.13;31.00;100667.50;5076548;28;20020;-74
2023/03/12 08:48:24;;;;;;;2.88;1.70;;;;;;;18.12;31.18;100649.69;5088711;28;20722;-74
2023/03/12 08:50:50;;;;;;;2.65;1.63;;;;;;;18.16;31.14;100659.09;5089382;28;20028;-74
2023/03/12 08:53:16;;;;;;;3.22;1.83;;;;;;;18.19;31.09;100661.47;5088900;28;20020;-74
2023/03/12 08:55:41;;;;;;;2.20;1.60;;;;;;;18.21;30.91;100667.50;5087536;28;20089;-73
2023/03/12 08:58:06;;;;;;;3.70;1.83;;;;;;;16.82;30.93;100433.63;5095795;28;20063;-74
2023/03/12 09:00:32;;;;;;;1.80;1.42;;;;;;;18.23;30.98;100658.25;5089273;28;20025;-74
2023/03/12 09:02:57;;;;;;;2.28;1.80;;;;;;;18.27;30.78;100661.44;5087341;28;20028;-75
2023/03/12 09:05:24;;;;;;;2.53;1.75;;;;;;;18.29;31.07;100648.66;5087479;28;20082;-74
2023/03/12 09:07:49;;;;;;;2.95;1.90;;;;;;;18.08;31.06;100616.88;5096264;28;20084;-74
2023/03/12 09:10:15;;;;;;;2.80;1.73;;;;;;;17.79;31.00;100571.69;5070463;28;20059;-74
2023/03/12 09:12:40;;;;;;;2.63;1.58;;;;;;;18.30;30.94;100649.47;5087545;28;20435;-73
2023/03/12 09:15:07;;;;;;;3.15;1.50;;;;;;;17.82;30.81;100568.69;5092105;28;20028;-74
2023/03/12 09:17:32;;;;;;;3.22;1.90;;;;;;;18.30;31.42;100644.09;5101207;28;20446;-74
2023/03/12 09:19:57;;;;;;;2.65;1.80;;;;;;;18.32;30.88;100650.16;5088407;28;20060;-75
2023/03/12 09:22:23;;;;;;;2.28;1.65;;;;;;;18.31;31.13;100649.34;5092155;28;20028;-74
2023/03/12 09:24:48;;;;;;;3.30;1.90;;;;;;;18.33;31.14;100654.53;5098146;28;20037;-74
2023/03/12 09:27:13;;;;;;;2.10;1.50;;;;;;;18.34;31.18;100650.81;5083043;28;20028;-73
2023/03/12 09:29:38;;;;;;;3.85;1.75;;;;;;;18.32;31.03;100642.94;5091827;28;20731;-72
2023/03/12 09:32:04;;;;;;;3.30;2.00;;;;;;;18.37;30.70;100672.03;5093332;28;20033;-73
2023/03/12 09:34:29;;;;;;;2.55;1.80;;;;;;;18.30;31.02;100644.94;5101890;28;20051;-73
2023/03/12 09:36:55;;;;;;;1.73;1.58;;;;;;;18.37;30.95;100655.88;5096594;28;20046;-73
2023/03/12 09:39:21;;;;;;;2.97;1.67;;;;;;;18.41;30.87;100663.44;5103547;28;20028;-73
2023/03/12 09:41:47;;;;;;;1.80;1.67;;;;;;;18.23;31.20;100633.19;5099035;28;20028;-72
2023/03/12 09:44:37;;;;;;;2.83;1.48;;;;;;;18.45;30.91;100663.94;5099295;28;20098;-73
2023/03/12 09:47:07;;;;;;;3.13;1.65;;;;;;;18.46;30.80;100654.84;5100972;28;20036;-74
2023/03/12 09:49:45;;;;;;;1.52;1.42;;;;;;;18.49;30.87;100633.81;5092461;28;20024;-73
2023/03/12 09:52:24;;;;;;;3.17;1.77;;;;;;;18.08;31.10;100567.63;5101561;28;20059;-74
2023/03/12 09:55:16;;;;;;;2.50;1.50;;;;;;;18.10;31.05;100582.59;5102128;28;20070;-73
2023/03/12 09:57:42;;;;;;;2.45;1.70;;;;;;;18.55;30.79;100650.28;5090102;28;20028;-73
2023/03/12 10:00:19;;;;;;;2.17;1.70;;;;;;;18.53;30.80;100633.47;5088440;28;20028;-73
2023/03/12 10:03:16;;;;;;;2.90;1.60;;;;;;;18.58;31.03;100634.63;5102170;28;20025;-74
2023/03/12 10:06:13;;;;;;;2.28;1.50;;;;;;;18.61;31.00;100639.66;5096682;28;20045;-73
2023/03/12 10:09:16;;;;;;;2.80;1.63;;;;;;;18.63;30.95;100640.31;5093496;28;20037;-73
2023/03/12 10:12:03;;;;;;;1.80;1.48;;;;;;;18.67;31.10;100651.59;5099931;28;20024;-73
2023/03/12 10:14:50;;;;;;;3.05;1.42;;;;;;;18.70;30.80;100643.19;5092648;28;20035;-74
2023/03/12 10:17:27;;;;;;;2.60;1.88;;;;;;;18.74;30.93;100663.38;5092245;28;20099;-72
2023/03/12 10:20:30;;;;;;;1.90;1.67;;;;;;;18.77;31.17;100648.72;5097462;28;20024;-73
2023/03/12 10:23:26;;;;;;;1.70;1.25;;;;;;;18.80;30.77;100635.75;5093276;28;20051;-74
2023/03/12 10:25:58;;;;;;;2.10;1.70;;;;;;;18.82;30.89;100646.34;5102003;28;20066;-74
2023/03/12 10:28:30;;;;;;;1.55;1.40;;;;;;;18.83;30.77;100642.66;5090750;28;20024;-74
2023/03/12 10:31:00;;;;;;;4.03;1.80;;;;;;;18.34;30.64;100553.94;5094491;28;20500;-73
2023/03/12 10:33:37;;;;;;;2.47;1.52;;;;;;;18.85;30.92;100636.06;5103778;28;20025;-73
2023/03/12 10:36:15;;;;;;;1.50;1.40;;;;;;;18.83;31.00;100634.56;5092333;28;20951;-74
2023/03/12 10:38:41;;;;;;;1.50;1.25;;;;;;;18.89;30.96;100628.47;5103419;28;20468;-73
2023/03/12 10:41:19;;;;;;;2.25;1.40;;;;;;;18.88;30.71;100632.19;5091120;28;20031;-73
2023/03/12 10:43:44;;;;;;;1.80;1.38;;;;;;;18.82;30.60;100620.28;5086607;28;20030;-73
2023/03/12 10:46:13;;;;;;;1.75;1.52;;;;;;;18.90;31.10;100628.31;5093592;28;20103;-73
2023/03/12 10:48:38;;;;;;;2.28;1.58;;;;;;;18.92;31.28;100625.44;5093867;28;20017;-73
2023/03/12 10:51:05;;;;;;;2.22;1.60;;;;;;;18.93;31.00;100624.41;5086858;28;20085;-74
2023/03/12 10:53:33;;;;;;;1.70;1.40;;;;;;;18.53;30.84;100560.78;5094544;28;20081;-74
2023/03/12 10:56:09;;;;;;;2.30;1.60;;;;;;;18.92;30.86;100620.03;5093732;28;20081;-73
2023/03/12 10:58:40;;;;;;;1.90;1.40;;;;;;;18.91;31.18;100616.50;5092059;28;20020;-73
2023/03/12 11:01:17;;;;;;;1.90;1.55;;;;;;;18.93;31.23;100632.50;5091379;28;20016;-73
2023/03/12 11:03:43;;;;;;;2.22;1.50;;;;;;;18.93;31.13;100627.94;5095513;28;20028;-72
2023/03/12 11:06:14;;;;;;;2.22;1.80;;;;;;;18.93;31.37;100632.50;5086211;28;20055;-73
2023/03/12 11:08:39;;;;;;;2.88;1.80;;;;;;;18.40;31.24;100546.00;5092122;28;20062;-74
2023/03/12 11:11:08;;;;;;;2.08;1.58;;;;;;;18.91;31.57;100624.59;5094927;28;20032;-74
2023/03/12 11:13:38;;;;;;;2.05;1.63;;;;;;;18.91;31.45;100623.75;5097128;28;20103;-74
2023/03/12 11:16:16;;;;;;;2.50;1.98;;;;;;;18.90;31.46;100622.94;5090757;28;20058;-74
2023/03/12 11:19:02;;;;;;;2.00;1.63;;;;;;;18.92;31.50;100636.22;5090486;28;20035;-74
2023/03/12 11:21:30;;;;;;;2.42;1.70;;;;;;;18.84;31.27;100615.53;5102913;28;20038;-74
2023/03/12 11:23:55;;;;;;;2.28;1.55;;;;;;;18.93;31.48;100624.41;5090349;28;20032;-74
2023/03/12 11:26:32;;;;;;;2.20;1.80;;;;;;;18.93;31.50;100622.56;5091635;28;20469;-74